Pagrindinis puslapis
METAR-TAF:

METAR-TAF

Oro uostai :

Kuveitas, Kuveitas

platuma: 29-13N, ilguma: 047-59E, Aukštis: 55 m

Dabartinis oras

Ataskaita buvo paskelbta 31 minutes, ne 08:00 UTC
Vėjas 3 kt iš Vakarų/Šiaurės Vakarų
Temperatūra 33°C
Drėgmė 23%
Slėgis 1011 hPa
Matomumas: 7000 m
Mažai debesys ne aukštis 2500 ft

METAR: OKKK 180800Z 30003KT 7000 FEW025 33/09 Q1011 NOSIG

Laikas: 11:31 (08:31 UTC)

Prognozė

Ataskaita buvo paskelbta 3 valandos ir 31 minutes, ne 05:00 UTC
Prognozė galioja nuo 18 metu 06 UTC su 19 metu 12 UTC
Vėjas 3 kt nuo kintamojo kryptimis
Matomumas: 7000 m
Laikinai
nuo 18 metu 10 UTC su 18 metu 18 UTC
Vėjas 10 kt iš Pietryčių

TAF: OKKK 180500Z 1806/1912 VRB03KT 7000 NSC TEMPO 1810/1818 14010KT

Orai ataskaitas ir orų prognozės (METAR, TAF).

turimą stotys yra geltonos ir raudonos taškus žemėlapyje.

Perkelti pele per norėdami pamatyti stoties vardą.

Tada spustelėkite, norėdami matyti oro stebėjimo ir prognozės.

Norėdami pakeisti žemėlapį: spustelėkite ant žalios mygtukų su juodo kryžiaus žemyn,; žalią mygtuką su brūkšneliu, jei norite nutolinti; arba žalių rodyklių gretimoms žemėlapius.


METAR-TAF: